createdAt,value
2022-09-13T00:01:33.412Z,17.00
2022-09-13T00:04:04.441Z,16.98
2022-09-13T00:06:32.083Z,16.97
2022-09-13T00:09:01.483Z,16.95
2022-09-13T00:11:31.573Z,16.93
2022-09-13T00:13:59.865Z,16.92
2022-09-13T00:16:29.834Z,16.89
2022-09-13T00:18:57.881Z,16.85
2022-09-13T00:21:27.999Z,16.79
2022-09-13T00:23:56.671Z,16.75
2022-09-13T00:26:27.543Z,16.71
2022-09-13T00:28:57.691Z,16.63
2022-09-13T00:31:28.019Z,16.60
2022-09-13T00:33:56.220Z,16.58
2022-09-13T00:36:24.425Z,16.57
2022-09-13T00:38:53.817Z,16.54
2022-09-13T00:41:22.833Z,16.53
2022-09-13T00:43:52.076Z,16.48
2022-09-13T00:46:27.774Z,16.46
2022-09-13T00:49:01.822Z,16.42
2022-09-13T00:51:30.054Z,16.41
2022-09-13T00:54:00.919Z,16.39
2022-09-13T00:56:35.528Z,16.39
2022-09-13T00:59:08.227Z,16.40
2022-09-13T01:01:42.484Z,16.38
2022-09-13T01:04:12.740Z,16.36
2022-09-13T01:06:42.733Z,16.33
2022-09-13T01:09:13.445Z,16.31
2022-09-13T01:11:47.214Z,16.32
2022-09-13T01:14:15.444Z,16.37
2022-09-13T01:16:47.618Z,16.45
2022-09-13T01:19:15.260Z,16.57
2022-09-13T01:22:19.105Z,16.66
2022-09-13T01:25:27.984Z,16.77
2022-09-13T01:28:18.873Z,16.81
2022-09-13T01:30:56.887Z,16.85
2022-09-13T01:33:36.835Z,16.87
2022-09-13T01:36:25.659Z,16.92
2022-09-13T01:39:00.310Z,16.95
2022-09-13T01:41:47.626Z,16.94
2022-09-13T01:44:27.161Z,16.93
2022-09-13T01:47:04.673Z,16.90
2022-09-13T01:49:40.272Z,16.88
2022-09-13T01:52:17.412Z,16.89
2022-09-13T01:54:55.223Z,16.94
2022-09-13T01:57:31.325Z,16.91
2022-09-13T02:00:03.887Z,16.85
2022-09-13T02:02:39.616Z,16.79
2022-09-13T02:05:12.935Z,16.76
2022-09-13T02:07:43.576Z,16.74
2022-09-13T02:10:16.407Z,16.73
2022-09-13T02:12:46.282Z,16.70
2022-09-13T02:15:17.885Z,16.67
2022-09-13T02:17:51.032Z,16.64
2022-09-13T02:20:24.741Z,16.61
2022-09-13T02:22:57.995Z,16.57
2022-09-13T02:25:27.370Z,16.53
2022-09-13T02:27:58.902Z,16.48
2022-09-13T02:30:28.421Z,16.41
2022-09-13T02:33:01.723Z,16.35
2022-09-13T02:35:35.411Z,16.31
2022-09-13T02:38:06.149Z,16.28
2022-09-13T02:40:43.401Z,16.26
2022-09-13T02:43:16.044Z,16.24
2022-09-13T02:45:52.159Z,16.21
2022-09-13T02:48:26.642Z,16.16
2022-09-13T02:51:01.069Z,16.09
2022-09-13T02:53:36.683Z,16.03
2022-09-13T02:56:10.766Z,15.98
2022-09-13T02:58:46.392Z,15.93
2022-09-13T03:01:15.112Z,15.93
2022-09-13T03:03:44.787Z,15.96
2022-09-13T03:06:12.731Z,15.95
2022-09-13T03:08:40.704Z,15.93
2022-09-13T03:11:18.592Z,15.92
2022-09-13T03:14:18.986Z,15.93
2022-09-13T03:17:02.873Z,15.95
2022-09-13T03:19:44.460Z,16.03
2022-09-13T03:22:28.842Z,16.00
2022-09-13T03:25:06.932Z,15.91
2022-09-13T03:27:41.495Z,15.86
2022-09-13T03:30:10.516Z,15.81
2022-09-13T03:32:45.021Z,15.75
2022-09-13T03:35:23.100Z,15.66
2022-09-13T03:37:58.662Z,15.59
2022-09-13T03:40:36.003Z,15.52
2022-09-13T03:43:09.610Z,15.48
2022-09-13T03:45:51.030Z,15.42
2022-09-13T03:48:20.335Z,15.37
2022-09-13T03:50:50.708Z,15.33
2022-09-13T03:53:21.994Z,15.36
2022-09-13T03:55:49.661Z,15.44
2022-09-13T03:58:19.398Z,15.51
2022-09-13T04:00:47.336Z,15.56
2022-09-13T04:03:15.647Z,15.59
2022-09-13T04:05:43.145Z,15.61
2022-09-13T04:08:11.962Z,15.62
2022-09-13T04:10:39.981Z,15.62
2022-09-13T04:13:07.450Z,15.62
2022-09-13T04:15:34.929Z,15.60
2022-09-13T04:18:02.421Z,15.62
2022-09-13T04:20:30.049Z,15.65
2022-09-13T04:22:58.507Z,15.66
2022-09-13T04:25:27.541Z,15.61
2022-09-13T04:27:55.924Z,15.53
2022-09-13T04:30:23.552Z,15.48
2022-09-13T04:32:51.181Z,15.45
2022-09-13T04:35:19.552Z,15.44
2022-09-13T04:37:47.268Z,15.46
2022-09-13T04:40:15.044Z,15.53
2022-09-13T04:42:44.892Z,15.59
2022-09-13T04:45:12.530Z,15.63
2022-09-13T04:47:40.047Z,15.67
2022-09-13T04:50:08.308Z,15.64
2022-09-13T04:52:35.833Z,15.57
2022-09-13T04:55:03.446Z,15.57
2022-09-13T04:57:30.921Z,15.56
2022-09-13T04:59:59.996Z,15.53
2022-09-13T05:02:27.706Z,15.47
2022-09-13T05:04:59.469Z,15.39
2022-09-13T05:07:32.782Z,15.31
2022-09-13T05:10:00.373Z,15.30
2022-09-13T05:12:27.931Z,15.36
2022-09-13T05:14:55.600Z,15.41
2022-09-13T05:17:24.464Z,15.44
2022-09-13T05:19:52.033Z,15.52
2022-09-13T05:22:19.549Z,15.56
2022-09-13T05:24:47.123Z,15.57
2022-09-13T05:27:14.749Z,15.49
2022-09-13T05:29:42.347Z,15.43
2022-09-13T05:32:19.527Z,15.42
2022-09-13T05:34:48.739Z,15.48
2022-09-13T05:37:16.245Z,15.58
2022-09-13T05:40:07.802Z,15.65
2022-09-13T05:42:31.179Z,15.72
2022-09-13T05:44:58.686Z,15.75
2022-09-13T05:47:26.232Z,15.80
2022-09-13T05:50:09.958Z,15.85
2022-09-13T05:52:38.622Z,15.93
2022-09-13T05:55:06.550Z,16.00
2022-09-13T05:57:34.038Z,16.06
2022-09-13T06:00:01.508Z,16.09
2022-09-13T06:02:29.075Z,16.12
2022-09-13T06:04:58.004Z,16.21
2022-09-13T06:07:25.544Z,16.24
2022-09-13T06:09:53.418Z,16.32
2022-09-13T06:12:21.237Z,16.41
2022-09-13T06:14:48.759Z,16.44
2022-09-13T06:17:16.336Z,16.48
2022-09-13T06:36:34.027Z,16.65
2022-09-13T06:40:07.763Z,16.67
2022-09-13T06:47:01.087Z,16.76
2022-09-13T06:49:41.578Z,16.80
2022-09-13T06:53:02.128Z,16.84
2022-09-13T06:58:56.425Z,16.92
2022-09-13T07:01:55.000Z,17.05
2022-09-13T07:04:52.086Z,17.24
2022-09-13T07:07:26.545Z,17.41
2022-09-13T07:13:13.438Z,17.60
2022-09-13T07:16:03.449Z,17.73
2022-09-13T07:19:00.711Z,17.86
2022-09-13T07:21:46.993Z,18.00
2022-09-13T07:27:30.272Z,18.25
2022-09-13T07:29:59.815Z,18.37
2022-09-13T07:32:50.945Z,18.51
2022-09-13T07:35:32.983Z,18.69
2022-09-13T07:38:36.362Z,18.85
2022-09-13T07:41:14.028Z,19.05
2022-09-13T07:48:25.031Z,19.55
2022-09-13T07:51:19.322Z,19.90
2022-09-13T07:53:57.035Z,20.27
2022-09-13T08:11:35.648Z,23.83
2022-09-13T08:18:30.602Z,25.63
2022-09-13T08:22:08.563Z,26.41
2022-09-13T08:36:30.228Z,29.54
2022-09-13T08:50:09.325Z,32.34
2022-09-13T09:00:22.927Z,33.48
2022-09-13T09:07:08.770Z,33.54
2022-09-13T09:25:17.178Z,34.66
2022-09-13T09:27:45.087Z,34.82
2022-09-13T09:30:15.358Z,34.94
2022-09-13T09:32:52.838Z,34.90
2022-09-13T10:06:07.311Z,31.78
2022-09-13T10:09:28.964Z,31.23
2022-09-13T10:12:08.492Z,31.04
2022-09-13T10:15:17.134Z,31.23
2022-09-13T10:18:03.450Z,31.55
2022-09-13T10:20:32.811Z,32.29
2022-09-13T10:26:40.321Z,33.61
2022-09-13T10:29:23.829Z,34.89
2022-09-13T10:31:55.548Z,35.80
2022-09-13T10:34:24.155Z,35.50
2022-09-13T10:36:55.604Z,34.97
2022-09-13T10:39:25.034Z,34.62
2022-09-13T10:41:57.018Z,34.22
2022-09-13T10:44:34.019Z,33.96
2022-09-13T10:47:05.511Z,34.38
2022-09-13T10:49:37.665Z,35.30
2022-09-13T10:52:27.936Z,37.06
2022-09-13T10:54:56.239Z,37.38
2022-09-13T10:57:34.448Z,37.25
2022-09-13T11:00:03.074Z,38.37
2022-09-13T11:02:49.124Z,39.50
2022-09-13T11:05:25.980Z,39.79
2022-09-13T11:08:22.511Z,39.84
2022-09-13T11:11:02.271Z,39.82
2022-09-13T11:13:44.844Z,40.02
2022-09-13T11:16:27.169Z,39.90
2022-09-13T11:19:09.569Z,39.81
2022-09-13T11:21:48.958Z,39.43
2022-09-13T11:24:48.399Z,38.67
2022-09-13T11:27:26.923Z,37.71
2022-09-13T11:30:13.805Z,37.01
2022-09-13T11:32:53.559Z,36.86
2022-09-13T11:35:43.302Z,37.10
2022-09-13T11:38:33.880Z,37.00
2022-09-13T11:41:12.887Z,36.89
2022-09-13T11:43:56.241Z,36.63
2022-09-13T11:46:34.326Z,36.30
2022-09-13T11:49:26.574Z,36.07
2022-09-13T11:52:04.329Z,35.85
2022-09-13T11:54:44.652Z,35.62
2022-09-13T11:57:18.544Z,35.56
2022-09-13T11:59:50.531Z,35.51
2022-09-13T12:02:28.575Z,35.35
2022-09-13T12:05:20.957Z,35.11
2022-09-13T12:07:51.438Z,34.79
2022-09-13T12:10:23.554Z,34.46
2022-09-13T12:12:52.716Z,34.11
2022-09-13T12:15:26.888Z,33.86
2022-09-13T12:17:59.892Z,33.68
2022-09-13T12:20:33.148Z,33.50
2022-09-13T12:23:03.398Z,33.31
2022-09-13T12:25:39.850Z,33.12
2022-09-13T12:28:18.282Z,32.96
2022-09-13T12:30:51.959Z,32.77
2022-09-13T12:33:21.227Z,32.54
2022-09-13T12:36:11.978Z,32.29
2022-09-13T12:39:01.603Z,32.07
2022-09-13T12:41:44.504Z,31.87
2022-09-13T12:44:33.772Z,31.68
2022-09-13T12:47:30.690Z,31.47
2022-09-13T12:50:42.019Z,31.31
2022-09-13T12:53:27.959Z,31.20
2022-09-13T12:56:11.920Z,31.04
2022-09-13T12:58:57.336Z,30.87
2022-09-13T13:01:27.556Z,30.74
2022-09-13T13:03:59.545Z,30.65
2022-09-13T13:06:33.300Z,30.53
2022-09-13T13:09:04.084Z,30.42
2022-09-13T13:11:44.082Z,30.33
2022-09-13T13:14:29.411Z,30.21
2022-09-13T13:17:37.119Z,30.09
2022-09-13T13:20:38.414Z,29.91
2022-09-13T13:23:23.384Z,29.73
2022-09-13T13:26:05.711Z,29.56
2022-09-13T13:29:04.725Z,29.47
2022-09-13T13:31:38.331Z,29.40
2022-09-13T13:34:28.668Z,29.34
2022-09-13T13:37:01.007Z,29.34
2022-09-13T13:39:39.154Z,29.33
2022-09-13T13:42:26.128Z,29.32
2022-09-13T13:45:32.169Z,29.31
2022-09-13T13:48:16.175Z,29.27
2022-09-13T13:51:14.101Z,29.23
2022-09-13T13:53:44.560Z,29.16
2022-09-13T13:56:35.125Z,29.11
2022-09-13T13:59:14.465Z,29.05
2022-09-13T14:01:47.630Z,28.99
2022-09-13T14:04:43.806Z,28.93
2022-09-13T14:07:23.171Z,28.86
2022-09-13T14:09:57.483Z,28.85
2022-09-13T14:12:40.430Z,28.80
2022-09-13T14:15:32.877Z,28.70
2022-09-13T14:18:14.844Z,28.61
2022-09-13T14:21:01.393Z,28.49
2022-09-13T14:23:30.182Z,28.39
2022-09-13T14:26:00.117Z,28.31
2022-09-13T14:28:29.622Z,28.21
2022-09-13T14:30:59.500Z,28.13
2022-09-13T14:33:32.114Z,28.06
2022-09-13T14:36:02.493Z,27.97
2022-09-13T14:38:35.401Z,27.89
2022-09-13T14:41:13.897Z,27.82
2022-09-13T14:43:43.762Z,27.75
2022-09-13T14:46:14.782Z,27.70
2022-09-13T14:48:50.618Z,27.68
2022-09-13T14:51:22.417Z,27.72
2022-09-13T14:53:53.612Z,27.73
2022-09-13T14:56:31.186Z,27.69
2022-09-13T14:59:04.968Z,27.65
2022-09-13T15:01:35.002Z,27.61
2022-09-13T15:04:05.368Z,27.57
2022-09-13T15:06:34.967Z,27.54
2022-09-13T15:09:16.141Z,27.50
2022-09-13T15:11:57.914Z,27.45
2022-09-13T15:14:31.089Z,27.39
2022-09-13T15:17:02.934Z,27.37
2022-09-13T15:19:37.050Z,27.33
2022-09-13T15:22:07.513Z,27.29
2022-09-13T15:24:36.864Z,27.26
2022-09-13T15:27:08.123Z,27.22
2022-09-13T15:29:37.755Z,27.18
2022-09-13T15:32:06.851Z,27.16
2022-09-13T15:34:34.776Z,27.12
2022-09-13T15:37:16.140Z,27.11
2022-09-13T15:39:48.191Z,27.06
2022-09-13T15:42:16.425Z,27.00
2022-09-13T15:44:45.412Z,26.92
2022-09-13T15:47:18.524Z,26.85
2022-09-13T15:49:58.588Z,26.81
2022-09-13T15:52:26.250Z,26.77
2022-09-13T15:54:53.950Z,26.75
2022-09-13T16:07:37.732Z,26.55
2022-09-13T19:33:54.564Z,21.97
2022-09-13T19:36:59.156Z,21.88
2022-09-13T19:40:09.965Z,21.79
2022-09-13T19:43:07.721Z,21.72
2022-09-13T19:46:01.448Z,21.64
2022-09-13T19:48:46.749Z,21.60
2022-09-13T19:51:22.691Z,21.54
2022-09-13T19:54:00.214Z,21.48
2022-09-13T19:59:32.508Z,21.30
2022-09-13T20:02:13.780Z,21.24
2022-09-13T20:05:00.793Z,21.18
2022-09-13T20:07:50.274Z,21.12
2022-09-13T20:10:25.505Z,21.07
2022-09-13T20:13:05.364Z,21.06
2022-09-13T20:15:57.071Z,21.05
2022-09-13T20:18:32.645Z,21.03
2022-09-13T20:21:18.311Z,21.03
2022-09-13T20:23:49.771Z,21.02
2022-09-13T20:26:42.481Z,21.03
2022-09-13T22:36:02.615Z,20.26
2022-09-13T22:38:31.733Z,20.26
2022-09-13T22:41:02.509Z,20.27
2022-09-13T22:43:30.511Z,20.29
2022-09-13T22:46:03.537Z,20.28
2022-09-13T22:48:31.482Z,20.27
2022-09-13T22:50:59.706Z,20.28
2022-09-13T22:53:29.477Z,20.27
2022-09-13T22:55:57.695Z,20.27
2022-09-13T22:58:25.889Z,20.28
2022-09-13T23:01:02.751Z,20.29
2022-09-13T23:03:31.081Z,20.29
2022-09-13T23:05:59.150Z,20.30
2022-09-13T23:08:28.771Z,20.30
2022-09-13T23:10:57.374Z,20.29
2022-09-13T23:13:25.316Z,20.29
2022-09-13T23:15:53.277Z,20.28
2022-09-13T23:18:21.359Z,20.27
2022-09-13T23:20:57.194Z,20.28
2022-09-13T23:23:25.373Z,20.29
2022-09-13T23:25:54.698Z,20.30
2022-09-13T23:28:22.526Z,20.32
2022-09-13T23:30:50.476Z,20.32
2022-09-13T23:33:18.392Z,20.34
2022-09-13T23:35:46.678Z,20.35
2022-09-13T23:38:14.545Z,20.37
2022-09-13T23:40:42.297Z,20.38
2022-09-13T23:43:11.493Z,20.38
2022-09-13T23:45:39.336Z,20.39
2022-09-13T23:48:07.633Z,20.39
2022-09-13T23:50:35.452Z,20.39
2022-09-13T23:53:03.403Z,20.40
2022-09-13T23:55:31.271Z,20.41
2022-09-13T23:57:58.987Z,20.43
